createdAt,value
2017-12-19T00:01:52.415Z,13.23
2017-12-19T00:04:19.011Z,13.77
2017-12-19T00:06:45.261Z,13.80
2017-12-19T00:09:11.489Z,14.05
2017-12-19T00:11:37.734Z,14.40
2017-12-19T00:14:04.331Z,13.50
2017-12-19T00:16:31.204Z,14.70
2017-12-19T00:18:57.426Z,15.80
2017-12-19T00:21:23.678Z,14.85
2017-12-19T00:23:50.345Z,14.77
2017-12-19T00:26:16.641Z,14.45
2017-12-19T00:28:43.227Z,14.95
2017-12-19T00:31:09.476Z,14.02
2017-12-19T00:33:35.723Z,15.98
2017-12-19T00:36:02.353Z,14.73
2017-12-19T00:38:28.629Z,15.70
2017-12-19T00:40:54.862Z,15.35
2017-12-19T00:43:21.096Z,16.05
2017-12-19T00:45:47.350Z,16.50
2017-12-19T00:48:13.578Z,15.15
2017-12-19T00:50:39.808Z,16.45
2017-12-19T00:53:06.064Z,16.73
2017-12-19T00:55:32.300Z,17.10
2017-12-19T00:57:58.554Z,15.73
2017-12-19T01:00:24.732Z,17.73
2017-12-19T01:02:51.021Z,18.05
2017-12-19T01:05:17.313Z,20.25
2017-12-19T01:07:44.559Z,19.37
2017-12-19T01:10:11.180Z,20.20
2017-12-19T01:12:37.398Z,19.55
2017-12-19T01:15:04.876Z,19.30
2017-12-19T01:17:31.487Z,20.42
2017-12-19T01:19:57.705Z,19.70
2017-12-19T01:22:23.952Z,20.45
2017-12-19T01:24:50.189Z,19.65
2017-12-19T01:27:16.412Z,21.00
2017-12-19T01:29:42.612Z,19.77
2017-12-19T01:32:08.846Z,19.02
2017-12-19T01:34:35.075Z,20.05
2017-12-19T01:37:01.313Z,19.80
2017-12-19T01:39:27.532Z,19.42
2017-12-19T01:41:53.766Z,22.13
2017-12-19T01:44:20.400Z,20.92
2017-12-19T01:46:46.620Z,20.23
2017-12-19T01:49:12.827Z,21.67
2017-12-19T01:51:39.118Z,20.75
2017-12-19T01:54:05.730Z,21.27
2017-12-19T01:56:31.943Z,20.67
2017-12-19T01:58:58.153Z,22.92
2017-12-19T02:01:24.379Z,21.98
2017-12-19T02:03:50.611Z,21.48
2017-12-19T02:06:16.847Z,21.42
2017-12-19T02:08:43.093Z,22.08
2017-12-19T02:11:09.336Z,21.17
2017-12-19T02:13:35.551Z,22.55
2017-12-19T02:16:02.736Z,23.30
2017-12-19T02:18:29.009Z,21.98
2017-12-19T02:20:55.269Z,20.65
2017-12-19T02:23:21.529Z,23.25
2017-12-19T02:25:47.794Z,23.70
2017-12-19T02:28:14.029Z,22.90
2017-12-19T02:30:41.177Z,23.70
2017-12-19T02:33:07.435Z,22.95
2017-12-19T02:35:33.700Z,25.02
2017-12-19T02:38:00.069Z,23.12
2017-12-19T02:40:26.377Z,25.25
2017-12-19T02:45:50.430Z,23.23
2017-12-19T02:48:16.667Z,24.77
2017-12-19T02:50:42.917Z,22.92
2017-12-19T02:53:09.156Z,23.38
2017-12-19T02:55:35.416Z,24.50
2017-12-19T02:58:03.029Z,23.40
2017-12-19T03:00:30.087Z,25.20
2017-12-19T03:02:56.346Z,23.70
2017-12-19T03:05:22.602Z,24.75
2017-12-19T03:07:48.847Z,22.08
2017-12-19T03:10:15.466Z,24.98
2017-12-19T03:12:41.762Z,26.02
2017-12-19T03:15:08.009Z,22.80
2017-12-19T03:17:34.235Z,23.95
2017-12-19T03:20:00.496Z,25.27
2017-12-19T03:22:27.212Z,23.27
2017-12-19T03:24:53.936Z,24.15
2017-12-19T03:27:20.645Z,23.50
2017-12-19T03:29:46.954Z,24.48
2017-12-19T03:32:13.565Z,24.77
2017-12-19T03:34:39.805Z,25.30
2017-12-19T03:37:08.534Z,24.55
2017-12-19T03:39:34.811Z,23.58
2017-12-19T03:42:01.087Z,24.58
2017-12-19T03:44:27.332Z,25.37
2017-12-19T03:46:53.580Z,24.45
2017-12-19T03:49:20.121Z,25.12
2017-12-19T03:51:46.367Z,23.67
2017-12-19T03:54:12.589Z,23.50
2017-12-19T03:56:38.832Z,24.52
2017-12-19T03:59:05.110Z,21.42
2017-12-19T04:01:31.369Z,22.73
2017-12-19T04:03:57.617Z,24.40
2017-12-19T04:06:24.229Z,23.50
2017-12-19T04:08:50.484Z,26.27
2017-12-19T04:11:17.102Z,24.58
2017-12-19T04:13:43.367Z,24.20
2017-12-19T04:16:09.602Z,22.27
2017-12-19T04:18:35.846Z,24.50
2017-12-19T04:21:02.100Z,23.77
2017-12-19T04:23:28.358Z,22.35
2017-12-19T04:25:54.620Z,23.00
2017-12-19T04:28:20.877Z,26.00
2017-12-19T04:30:47.146Z,23.90
2017-12-19T04:33:13.765Z,23.35
2017-12-19T04:35:40.014Z,23.50
2017-12-19T04:38:07.035Z,21.92
2017-12-19T04:40:33.272Z,22.92
2017-12-19T04:43:00.140Z,23.73
2017-12-19T04:45:27.726Z,23.35
2017-12-19T04:47:53.964Z,23.75
2017-12-19T04:50:20.204Z,24.33
2017-12-19T04:52:46.462Z,24.15
2017-12-19T04:55:12.709Z,24.35
2017-12-19T04:57:39.324Z,22.48
2017-12-19T05:00:05.592Z,22.42
2017-12-19T05:02:31.833Z,24.15
2017-12-19T05:04:58.052Z,24.80
2017-12-19T05:07:24.351Z,23.85
2017-12-19T05:09:50.978Z,22.58
2017-12-19T05:12:17.252Z,23.15
2017-12-19T05:14:43.485Z,24.20
2017-12-19T05:17:09.759Z,25.50
2017-12-19T05:19:36.014Z,26.75
2017-12-19T05:22:02.676Z,26.15
2017-12-19T05:24:28.906Z,24.65
2017-12-19T05:26:55.139Z,24.48
2017-12-19T05:29:21.400Z,23.83
2017-12-19T05:31:47.653Z,23.27
2017-12-19T05:34:13.889Z,22.70
2017-12-19T05:36:40.490Z,27.15
2017-12-19T05:39:06.750Z,24.67
2017-12-19T05:41:32.974Z,23.55
2017-12-19T05:43:59.210Z,22.33
2017-12-19T05:46:25.482Z,23.40
2017-12-19T05:48:51.734Z,23.00
2017-12-19T05:51:18.015Z,24.42
2017-12-19T05:53:44.297Z,22.45
2017-12-19T05:56:10.545Z,22.23
2017-12-19T05:58:36.822Z,21.90
2017-12-19T06:01:03.098Z,24.15
2017-12-19T06:03:29.369Z,24.45
2017-12-19T06:05:55.630Z,25.55
2017-12-19T06:08:21.901Z,23.62
2017-12-19T06:10:48.134Z,22.95
2017-12-19T06:13:14.391Z,23.48
2017-12-19T06:15:40.657Z,24.50
2017-12-19T06:18:07.831Z,24.00
2017-12-19T06:20:34.479Z,24.73
2017-12-19T06:23:00.743Z,24.20
2017-12-19T06:25:27.009Z,23.83
2017-12-19T06:27:53.250Z,23.10
2017-12-19T06:30:19.892Z,23.52
2017-12-19T06:32:46.508Z,25.65
2017-12-19T06:35:12.764Z,23.20
2017-12-19T06:37:39.391Z,21.62
2017-12-19T06:40:06.003Z,23.10
2017-12-19T06:42:32.241Z,24.67
2017-12-19T06:44:58.476Z,28.15
2017-12-19T06:47:24.766Z,25.00
2017-12-19T06:49:51.056Z,27.80
2017-12-19T06:52:17.347Z,26.00
2017-12-19T06:54:43.611Z,25.88
2017-12-19T06:57:10.226Z,25.58
2017-12-19T06:59:36.504Z,25.27
2017-12-19T07:02:02.756Z,31.20
2017-12-19T07:04:29.599Z,26.70
2017-12-19T07:06:55.847Z,27.23
2017-12-19T07:09:22.136Z,27.85
2017-12-19T07:11:48.386Z,25.52
2017-12-19T07:14:14.697Z,23.65
2017-12-19T07:16:41.731Z,24.55
2017-12-19T07:19:07.969Z,24.50
2017-12-19T07:21:34.225Z,23.80
2017-12-19T07:24:00.472Z,27.75
2017-12-19T07:26:26.987Z,25.75
2017-12-19T07:28:53.220Z,26.85
2017-12-19T07:31:19.691Z,26.62
2017-12-19T07:33:46.361Z,28.02
2017-12-19T07:36:12.617Z,28.73
2017-12-19T07:38:38.871Z,29.77
2017-12-19T07:41:05.146Z,27.27
2017-12-19T07:43:32.024Z,27.25
2017-12-19T07:45:58.284Z,26.90
2017-12-19T07:48:24.899Z,27.80
2017-12-19T07:50:51.117Z,26.12
2017-12-19T07:53:17.494Z,27.00
2017-12-19T07:55:43.779Z,26.10
2017-12-19T07:58:10.011Z,25.75
2017-12-19T08:00:36.236Z,27.80
2017-12-19T08:03:02.504Z,27.55
2017-12-19T08:05:28.743Z,28.92
2017-12-19T08:07:55.046Z,27.70
2017-12-19T08:10:21.296Z,28.65
2017-12-19T08:12:47.540Z,28.45
2017-12-19T08:15:14.744Z,29.30
2017-12-19T08:17:41.073Z,28.75
2017-12-19T08:20:07.317Z,29.40
2017-12-19T08:22:33.554Z,25.98
2017-12-19T08:24:59.814Z,28.00
2017-12-19T08:27:26.041Z,26.70
2017-12-19T08:29:52.385Z,27.75
2017-12-19T08:32:18.605Z,29.12
2017-12-19T08:34:44.870Z,27.15
2017-12-19T08:37:11.085Z,26.20
2017-12-19T08:39:37.305Z,26.73
2017-12-19T08:42:03.518Z,27.17
2017-12-19T08:44:29.738Z,26.37
2017-12-19T08:46:55.965Z,27.98
2017-12-19T08:49:22.224Z,28.60
2017-12-19T08:51:48.437Z,24.80
2017-12-19T08:54:14.698Z,26.62
2017-12-19T08:56:40.894Z,27.00
2017-12-19T08:59:07.125Z,27.30
2017-12-19T09:01:33.327Z,27.77
2017-12-19T09:03:59.545Z,28.45
2017-12-19T09:06:25.765Z,27.42
2017-12-19T09:08:52.012Z,26.70
2017-12-19T09:11:18.227Z,28.15
2017-12-19T09:13:44.442Z,28.90
2017-12-19T09:16:10.672Z,28.50
2017-12-19T09:18:37.249Z,28.95
2017-12-19T09:21:03.456Z,28.83
2017-12-19T09:23:29.683Z,28.80
2017-12-19T09:25:55.909Z,29.15
2017-12-19T09:28:22.124Z,29.25
2017-12-19T09:30:48.324Z,28.23
2017-12-19T09:33:14.553Z,28.60
2017-12-19T09:35:40.771Z,29.58
2017-12-19T09:38:06.993Z,30.00
2017-12-19T09:40:33.215Z,28.87
2017-12-19T09:42:59.453Z,28.48
2017-12-19T09:45:25.697Z,29.92
2017-12-19T09:47:51.928Z,30.05
2017-12-19T09:50:18.132Z,29.70
2017-12-19T09:52:44.351Z,30.70
2017-12-19T09:55:10.591Z,30.27
2017-12-19T09:57:36.844Z,29.85
2017-12-19T10:00:03.470Z,29.75
2017-12-19T10:02:29.674Z,30.58
2017-12-19T10:04:55.917Z,29.12
2017-12-19T10:07:22.113Z,30.35
2017-12-19T10:09:48.335Z,31.52
2017-12-19T10:12:14.566Z,35.92
2017-12-19T10:14:40.782Z,29.08
2017-12-19T10:17:07.367Z,28.75
2017-12-19T10:19:34.222Z,33.08
2017-12-19T10:22:00.500Z,31.50
2017-12-19T10:24:26.804Z,29.90
2017-12-19T10:26:53.050Z,30.65
2017-12-19T10:29:19.296Z,28.25
2017-12-19T10:31:45.554Z,29.15
2017-12-19T10:34:11.809Z,27.15
2017-12-19T10:36:38.021Z,31.17
2017-12-19T10:39:04.629Z,30.00
2017-12-19T10:41:30.849Z,30.65
2017-12-19T10:43:57.117Z,32.05
2017-12-19T10:46:23.694Z,29.63
2017-12-19T10:48:49.945Z,29.05
2017-12-19T10:51:16.233Z,31.52
2017-12-19T10:53:42.469Z,30.10
2017-12-19T10:56:08.714Z,29.52
2017-12-19T10:58:34.945Z,34.10
2017-12-19T11:01:01.189Z,29.65
2017-12-19T11:03:27.428Z,31.37
2017-12-19T11:05:53.630Z,31.10
2017-12-19T11:08:19.883Z,29.63
2017-12-19T11:10:46.096Z,29.35
2017-12-19T11:13:12.335Z,29.52
2017-12-19T11:15:39.345Z,29.58
2017-12-19T11:18:05.598Z,31.08
2017-12-19T11:20:31.883Z,28.70
2017-12-19T11:22:58.247Z,28.52
2017-12-19T11:25:24.543Z,28.92
2017-12-19T11:27:50.971Z,29.60
2017-12-19T11:30:17.688Z,28.80
2017-12-19T11:32:44.211Z,29.52
2017-12-19T11:35:10.454Z,28.80
2017-12-19T11:37:37.693Z,28.70
2017-12-19T11:40:03.957Z,30.37
2017-12-19T11:42:30.170Z,30.17
2017-12-19T11:44:56.787Z,30.33
2017-12-19T11:47:23.098Z,26.98
2017-12-19T11:49:49.324Z,28.60
2017-12-19T11:52:15.658Z,28.62
2017-12-19T11:54:41.915Z,26.40
2017-12-19T11:57:08.201Z,27.95
2017-12-19T11:59:34.458Z,26.85
2017-12-19T12:02:00.731Z,26.23
2017-12-19T12:04:26.999Z,27.33
2017-12-19T12:06:53.208Z,28.60
2017-12-19T12:09:19.459Z,24.58
2017-12-19T12:11:45.694Z,26.73
2017-12-19T12:14:11.954Z,27.33
2017-12-19T12:16:38.570Z,26.35
2017-12-19T12:19:04.796Z,28.38
2017-12-19T12:21:31.082Z,27.13
2017-12-19T12:23:57.311Z,26.83
2017-12-19T12:26:23.546Z,28.12
2017-12-19T12:28:50.113Z,28.40
2017-12-19T12:31:16.356Z,31.73
2017-12-19T12:33:42.597Z,32.05
2017-12-19T12:36:09.509Z,29.55
2017-12-19T12:38:36.601Z,29.33
2017-12-19T12:41:02.879Z,27.00
2017-12-19T12:43:29.120Z,27.92
2017-12-19T12:45:55.366Z,25.70
2017-12-19T12:48:21.980Z,26.80
2017-12-19T12:50:48.708Z,23.75
2017-12-19T12:53:15.289Z,25.17
2017-12-19T12:55:41.883Z,26.52
2017-12-19T12:58:08.104Z,23.00
2017-12-19T13:00:34.392Z,25.25
2017-12-19T13:03:00.650Z,23.45
2017-12-19T13:05:27.521Z,23.90
2017-12-19T13:07:53.744Z,24.50
2017-12-19T13:10:20.025Z,22.67
2017-12-19T13:12:46.308Z,25.05
2017-12-19T13:15:14.397Z,24.10
2017-12-19T13:17:40.617Z,25.83
2017-12-19T13:20:06.849Z,23.80
2017-12-19T13:22:33.202Z,27.20
2017-12-19T13:25:00.577Z,26.55
2017-12-19T13:27:26.837Z,24.92
2017-12-19T13:29:54.010Z,26.02
2017-12-19T13:32:20.228Z,26.65
2017-12-19T13:34:46.467Z,27.75
2017-12-19T13:37:12.672Z,26.15
2017-12-19T13:39:38.938Z,22.98
2017-12-19T13:42:05.565Z,20.80
2017-12-19T13:44:31.794Z,22.10
2017-12-19T13:46:58.007Z,19.55
2017-12-19T13:49:24.250Z,18.80
2017-12-19T13:51:50.475Z,18.48
2017-12-19T13:54:16.711Z,17.90
2017-12-19T13:56:43.338Z,17.62
2017-12-19T13:59:09.632Z,18.73
2017-12-19T14:01:35.878Z,16.75
2017-12-19T14:04:02.171Z,18.27
2017-12-19T14:06:29.244Z,17.98
2017-12-19T14:08:56.481Z,17.90
2017-12-19T14:11:22.711Z,17.92
2017-12-19T14:13:48.983Z,18.98
2017-12-19T14:16:15.207Z,18.15
2017-12-19T14:18:41.437Z,18.20
2017-12-19T14:21:07.686Z,17.20
2017-12-19T14:23:34.354Z,18.48
2017-12-19T14:26:00.631Z,19.52
2017-12-19T14:28:26.863Z,20.85
2017-12-19T14:30:53.492Z,18.77
2017-12-19T14:33:19.733Z,19.62
2017-12-19T14:35:46.017Z,20.12
2017-12-19T14:38:12.263Z,18.80
2017-12-19T14:40:38.483Z,18.73
2017-12-19T14:43:04.743Z,19.37
2017-12-19T14:45:31.973Z,19.00
2017-12-19T14:47:58.235Z,18.52
2017-12-19T14:50:24.827Z,18.70
2017-12-19T14:52:51.100Z,16.70
2017-12-19T14:55:18.159Z,16.77
2017-12-19T14:57:44.783Z,16.20
2017-12-19T15:00:12.028Z,16.15
2017-12-19T15:02:38.277Z,15.45
2017-12-19T15:05:05.184Z,14.23
2017-12-19T15:07:31.445Z,15.70
2017-12-19T15:09:58.156Z,15.60
2017-12-19T15:12:24.409Z,14.50
2017-12-19T15:14:50.703Z,16.20
2017-12-19T15:17:17.020Z,13.98
2017-12-19T15:19:43.247Z,15.25
2017-12-19T15:22:09.468Z,14.25
2017-12-19T15:24:35.709Z,14.38
2017-12-19T15:27:02.050Z,14.43
2017-12-19T15:29:28.709Z,12.32
2017-12-19T15:31:54.933Z,14.50
2017-12-19T15:34:21.149Z,12.75
2017-12-19T15:36:47.416Z,12.77
2017-12-19T15:39:14.013Z,13.00
2017-12-19T15:41:40.260Z,13.18
2017-12-19T15:44:06.536Z,13.25
2017-12-19T15:46:33.535Z,13.18
2017-12-19T15:49:00.612Z,12.23
2017-12-19T15:51:26.925Z,10.98
2017-12-19T15:53:53.181Z,10.75
2017-12-19T15:56:19.404Z,12.40
2017-12-19T15:58:45.647Z,10.90
2017-12-19T16:01:11.865Z,11.60
2017-12-19T16:03:38.671Z,12.52
2017-12-19T16:06:04.929Z,10.65
2017-12-19T16:08:31.190Z,9.05
2017-12-19T16:10:57.478Z,11.18
2017-12-19T16:13:24.079Z,10.43
2017-12-19T16:15:50.400Z,11.55
2017-12-19T16:18:16.621Z,14.57
2017-12-19T16:20:42.894Z,11.88
2017-12-19T16:23:09.481Z,13.05
2017-12-19T16:25:36.622Z,11.98
2017-12-19T16:28:02.868Z,12.35
2017-12-19T16:30:30.499Z,10.02
2017-12-19T16:32:56.771Z,8.05
2017-12-19T16:35:23.200Z,7.03
2017-12-19T16:37:50.044Z,7.03
2017-12-19T16:40:16.281Z,7.50
2017-12-19T16:42:42.484Z,6.62
2017-12-19T16:45:08.987Z,6.50
2017-12-19T16:47:35.237Z,6.75
2017-12-19T16:50:01.486Z,7.07
2017-12-19T16:52:27.732Z,7.75
2017-12-19T16:54:54.010Z,8.20
2017-12-19T16:57:20.309Z,10.57
2017-12-19T16:59:46.949Z,9.88
2017-12-19T17:02:13.560Z,9.45
2017-12-19T17:04:39.783Z,8.77
2017-12-19T17:07:06.025Z,8.75
2017-12-19T17:09:32.364Z,9.18
2017-12-19T17:11:59.126Z,8.77
2017-12-19T17:14:25.374Z,8.75
2017-12-19T17:16:51.659Z,10.20
2017-12-19T17:19:18.288Z,9.10
2017-12-19T17:21:44.540Z,8.40
2017-12-19T17:24:11.219Z,9.95
2017-12-19T17:26:37.541Z,10.10
2017-12-19T17:29:03.829Z,9.25
2017-12-19T17:31:30.696Z,9.77
2017-12-19T17:33:56.969Z,9.00
2017-12-19T17:36:23.229Z,8.65
2017-12-19T17:38:49.926Z,9.07
2017-12-19T17:41:16.226Z,9.50
2017-12-19T17:43:43.006Z,9.25
2017-12-19T17:46:09.530Z,9.40
2017-12-19T17:48:35.829Z,9.85
2017-12-19T17:51:02.114Z,10.65
2017-12-19T17:53:28.439Z,9.55
2017-12-19T17:55:54.721Z,10.07
2017-12-19T17:58:20.988Z,11.45
2017-12-19T18:00:47.246Z,9.98
2017-12-19T18:03:14.749Z,11.75
2017-12-19T18:05:41.017Z,10.13
2017-12-19T18:08:07.292Z,10.82
2017-12-19T18:10:33.599Z,11.55
2017-12-19T18:13:00.273Z,12.55
2017-12-19T18:15:26.622Z,14.32
2017-12-19T18:17:52.916Z,12.15
2017-12-19T18:20:19.198Z,12.90
2017-12-19T18:22:45.879Z,12.07
2017-12-19T18:25:12.207Z,10.02
2017-12-19T18:27:38.525Z,10.48
2017-12-19T18:30:05.185Z,11.18
2017-12-19T18:32:31.451Z,11.57
2017-12-19T18:34:57.730Z,10.85
2017-12-19T18:37:24.028Z,11.12
2017-12-19T18:39:50.292Z,10.40
2017-12-19T18:42:16.558Z,11.15
2017-12-19T18:44:42.849Z,11.32
2017-12-19T18:47:09.121Z,12.37
2017-12-19T18:49:36.443Z,11.18
2017-12-19T18:52:02.749Z,12.05
2017-12-19T18:54:29.068Z,11.25
2017-12-19T18:56:55.348Z,11.20
2017-12-19T18:59:21.609Z,11.20
2017-12-19T19:01:47.873Z,11.80
2017-12-19T19:04:14.492Z,11.23
2017-12-19T19:06:40.841Z,10.95
2017-12-19T19:09:07.559Z,11.30
2017-12-19T19:11:33.929Z,10.30
2017-12-19T19:14:00.224Z,10.43
2017-12-19T19:16:26.877Z,11.60
2017-12-19T19:18:53.843Z,10.40
2017-12-19T19:21:20.484Z,11.00
2017-12-19T19:23:47.084Z,12.50
2017-12-19T19:26:13.797Z,12.85
2017-12-19T19:28:40.812Z,10.30
2017-12-19T19:31:07.127Z,11.25
2017-12-19T19:33:33.445Z,11.35
2017-12-19T19:35:59.771Z,11.15
2017-12-19T19:38:27.225Z,11.85
2017-12-19T19:40:55.687Z,12.35
2017-12-19T19:43:21.990Z,12.77
2017-12-19T19:45:48.365Z,15.45
2017-12-19T19:48:15.058Z,14.77
2017-12-19T19:50:41.335Z,14.48
2017-12-19T19:53:08.093Z,14.60
2017-12-19T19:55:34.447Z,14.73
2017-12-19T19:58:00.784Z,17.87
2017-12-19T20:00:27.107Z,14.93
2017-12-19T20:02:53.482Z,12.85
2017-12-19T20:05:19.808Z,12.85
2017-12-19T20:07:46.130Z,13.77
2017-12-19T20:10:12.499Z,13.02
2017-12-19T20:12:39.193Z,13.48
2017-12-19T20:15:06.133Z,11.20
2017-12-19T20:17:33.305Z,12.35
2017-12-19T20:19:59.724Z,12.30
2017-12-19T20:22:25.994Z,13.60
2017-12-19T20:24:54.313Z,11.90
2017-12-19T20:27:21.015Z,12.05
2017-12-19T20:29:47.696Z,14.13
2017-12-19T20:32:14.004Z,11.40
2017-12-19T20:34:41.234Z,13.32
2017-12-19T20:37:08.404Z,12.93
2017-12-19T20:39:35.217Z,12.32
2017-12-19T20:42:02.436Z,12.95
2017-12-19T20:44:30.008Z,13.10
2017-12-19T20:46:58.099Z,11.82
2017-12-19T20:49:24.847Z,13.43
2017-12-19T20:51:52.674Z,13.80
2017-12-19T20:54:19.838Z,12.15
2017-12-19T20:56:46.531Z,14.45
2017-12-19T20:59:13.128Z,12.73
2017-12-19T21:01:40.390Z,14.02
2017-12-19T21:04:06.696Z,14.27
2017-12-19T21:06:33.007Z,14.70
2017-12-19T21:08:59.322Z,15.40
2017-12-19T21:11:25.615Z,14.60
2017-12-19T21:13:51.911Z,14.70
2017-12-19T21:16:18.221Z,15.35
2017-12-19T21:18:44.572Z,14.32
2017-12-19T21:21:11.649Z,16.50
2017-12-19T21:23:38.016Z,15.65
2017-12-19T21:26:05.433Z,15.00
2017-12-19T21:28:31.733Z,14.27
2017-12-19T21:30:58.963Z,15.30
2017-12-19T21:33:25.358Z,13.90
2017-12-19T21:35:51.646Z,15.90
2017-12-19T21:38:17.944Z,14.30
2017-12-19T21:40:44.182Z,14.45
2017-12-19T21:43:10.839Z,16.12
2017-12-19T21:45:37.118Z,16.90
2017-12-19T21:48:03.390Z,15.45
2017-12-19T21:50:29.654Z,14.93
2017-12-19T21:52:56.283Z,16.02
2017-12-19T21:55:22.884Z,14.85
2017-12-19T21:57:49.128Z,14.80
2017-12-19T22:00:15.430Z,16.20
2017-12-19T22:02:44.046Z,17.20
2017-12-19T22:05:11.166Z,16.40
2017-12-19T22:07:37.401Z,17.08
2017-12-19T22:10:03.658Z,15.43
2017-12-19T22:12:30.011Z,17.85
2017-12-19T22:14:59.780Z,18.40
2017-12-19T22:17:26.084Z,17.95
2017-12-19T22:19:52.415Z,21.00
2017-12-19T22:22:18.715Z,20.60
2017-12-19T22:24:44.982Z,20.25
2017-12-19T22:27:11.234Z,19.83
2017-12-19T22:29:38.524Z,18.00
2017-12-19T22:32:05.124Z,19.65
2017-12-19T22:34:31.443Z,15.48
2017-12-19T22:36:57.658Z,17.00
2017-12-19T22:39:23.925Z,18.58
2017-12-19T22:41:50.164Z,18.27
2017-12-19T22:44:16.445Z,19.80
2017-12-19T22:46:42.683Z,20.00
2017-12-19T22:49:08.926Z,19.55
2017-12-19T22:51:35.205Z,20.40
2017-12-19T22:54:01.425Z,20.35
2017-12-19T22:56:27.652Z,23.95
2017-12-19T22:58:53.894Z,21.37
2017-12-19T23:01:20.142Z,21.95
2017-12-19T23:03:46.349Z,21.87
2017-12-19T23:06:12.595Z,22.30
2017-12-19T23:08:38.805Z,23.02
2017-12-19T23:11:05.051Z,22.65
2017-12-19T23:13:31.289Z,20.88
2017-12-19T23:15:57.534Z,18.02
2017-12-19T23:18:23.769Z,18.65
2017-12-19T23:20:49.974Z,19.00
2017-12-19T23:23:16.246Z,19.90
2017-12-19T23:25:42.464Z,18.90
2017-12-19T23:28:09.470Z,16.80
2017-12-19T23:30:35.755Z,17.33
2017-12-19T23:33:01.991Z,17.35
2017-12-19T23:35:28.207Z,17.58
2017-12-19T23:37:54.431Z,18.48
2017-12-19T23:40:20.651Z,18.45
2017-12-19T23:42:47.245Z,17.65
2017-12-19T23:45:13.491Z,18.60
2017-12-19T23:47:39.709Z,17.00
2017-12-19T23:50:05.937Z,18.80
2017-12-19T23:52:32.155Z,18.52
2017-12-19T23:54:58.362Z,17.85
2017-12-19T23:57:24.627Z,18.52
2017-12-19T23:59:50.860Z,19.40
